sensor_id;sensor_type;location;lat;lon;timestamp;pressure;altitude;pressure_sealevel;temperature;humidity
85130;BME280;75492;49.310;20.046;2024-01-30T00:04:56;93615.88;;;-5.27;79.98
85130;BME280;75492;49.310;20.046;2024-01-30T00:09:58;93607.63;;;-5.17;79.75
85130;BME280;75492;49.310;20.046;2024-01-30T00:14:59;93603.16;;;-5.17;80.83
85130;BME280;75492;49.310;20.046;2024-01-30T00:20:02;93603.13;;;-5.04;81.07
85130;BME280;75492;49.310;20.046;2024-01-30T00:25:04;93597.53;;;-5.14;81.03
85130;BME280;75492;49.310;20.046;2024-01-30T00:30:07;93591.91;;;-5.31;80.54
85130;BME280;75492;49.310;20.046;2024-01-30T00:35:09;93590.31;;;-5.38;81.08
85130;BME280;75492;49.310;20.046;2024-01-30T00:40:11;93582.44;;;-5.25;82.36
85130;BME280;75492;49.310;20.046;2024-01-30T00:45:13;93580.63;;;-5.25;82.11
85130;BME280;75492;49.310;20.046;2024-01-30T00:50:16;93580.50;;;-5.56;80.82
85130;BME280;75492;49.310;20.046;2024-01-30T00:55:17;93581.88;;;-5.60;82.48
85130;BME280;75492;49.310;20.046;2024-01-30T01:00:19;93576.44;;;-5.46;81.58
85130;BME280;75492;49.310;20.046;2024-01-30T01:05:22;93585.13;;;-5.78;82.04
85130;BME280;75492;49.310;20.046;2024-01-30T01:10:23;93568.75;;;-5.40;79.77
85130;BME280;75492;49.310;20.046;2024-01-30T01:15:25;93573.81;;;-5.39;78.32
85130;BME280;75492;49.310;20.046;2024-01-30T01:20:27;93569.38;;;-5.45;79.53
85130;BME280;75492;49.310;20.046;2024-01-30T01:25:29;93559.94;;;-5.53;79.28
85130;BME280;75492;49.310;20.046;2024-01-30T01:30:30;93558.50;;;-5.42;79.67
85130;BME280;75492;49.310;20.046;2024-01-30T01:35:32;93546.44;;;-5.50;81.77
85130;BME280;75492;49.310;20.046;2024-01-30T01:40:34;93549.47;;;-5.46;80.83
85130;BME280;75492;49.310;20.046;2024-01-30T01:45:35;93548.66;;;-5.67;81.83
85130;BME280;75492;49.310;20.046;2024-01-30T01:50:38;93549.88;;;-5.56;79.30
85130;BME280;75492;49.310;20.046;2024-01-30T01:55:39;93534.38;;;-5.64;80.59
85130;BME280;75492;49.310;20.046;2024-01-30T02:00:40;93541.63;;;-5.66;82.04
85130;BME280;75492;49.310;20.046;2024-01-30T02:05:43;93544.03;;;-5.64;83.14
85130;BME280;75492;49.310;20.046;2024-01-30T02:10:45;93539.41;;;-5.56;82.37
85130;BME280;75492;49.310;20.046;2024-01-30T02:15:49;93539.19;;;-5.61;82.50
85130;BME280;75492;49.310;20.046;2024-01-30T02:20:53;93540.47;;;-6.03;81.96
85130;BME280;75492;49.310;20.046;2024-01-30T02:25:56;93544.84;;;-5.91;80.06
85130;BME280;75492;49.310;20.046;2024-01-30T02:30:58;93549.69;;;-5.81;80.38
85130;BME280;75492;49.310;20.046;2024-01-30T02:35:59;93543.44;;;-5.80;78.84
85130;BME280;75492;49.310;20.046;2024-01-30T02:41:02;93543.25;;;-5.78;78.46
85130;BME280;75492;49.310;20.046;2024-01-30T02:46:03;93548.28;;;-5.83;78.34
85130;BME280;75492;49.310;20.046;2024-01-30T02:51:04;93546.66;;;-5.78;79.37
85130;BME280;75492;49.310;20.046;2024-01-30T02:56:08;93544.25;;;-5.73;79.78
85130;BME280;75492;49.310;20.046;2024-01-30T03:01:09;93542.22;;;-5.57;80.25
85130;BME280;75492;49.310;20.046;2024-01-30T03:06:10;93543.63;;;-5.55;79.40
85130;BME280;75492;49.310;20.046;2024-01-30T03:11:13;93529.94;;;-5.77;80.00
85130;BME280;75492;49.310;20.046;2024-01-30T03:16:14;93525.56;;;-5.89;80.85
85130;BME280;75492;49.310;20.046;2024-01-30T03:21:15;93531.59;;;-5.82;80.66
85130;BME280;75492;49.310;20.046;2024-01-30T03:26:18;93513.31;;;-6.16;81.43
85130;BME280;75492;49.310;20.046;2024-01-30T03:31:19;93526.91;;;-5.67;80.47
85130;BME280;75492;49.310;20.046;2024-01-30T03:36:21;93517.84;;;-5.51;82.25
85130;BME280;75492;49.310;20.046;2024-01-30T03:41:23;93517.88;;;-5.71;82.29
85130;BME280;75492;49.310;20.046;2024-01-30T03:46:25;93509.84;;;-5.83;81.82
85130;BME280;75492;49.310;20.046;2024-01-30T03:51:26;93510.63;;;-5.62;81.05
85130;BME280;75492;49.310;20.046;2024-01-30T03:56:28;93513.84;;;-5.74;76.49
85130;BME280;75492;49.310;20.046;2024-01-30T04:01:30;93505.47;;;-5.96;78.89
85130;BME280;75492;49.310;20.046;2024-01-30T04:06:31;93507.06;;;-6.01;78.32
85130;BME280;75492;49.310;20.046;2024-01-30T04:11:34;93489.09;;;-5.91;79.58
85130;BME280;75492;49.310;20.046;2024-01-30T04:16:35;93499.75;;;-5.73;80.09
85130;BME280;75492;49.310;20.046;2024-01-30T04:21:36;93497.34;;;-5.81;79.52
85130;BME280;75492;49.310;20.046;2024-01-30T04:26:39;93500.59;;;-5.85;78.88
85130;BME280;75492;49.310;20.046;2024-01-30T04:31:40;93493.28;;;-5.70;79.63
85130;BME280;75492;49.310;20.046;2024-01-30T04:36:44;93499.53;;;-5.71;79.47
85130;BME280;75492;49.310;20.046;2024-01-30T04:41:46;93497.94;;;-5.72;79.61
85130;BME280;75492;49.310;20.046;2024-01-30T04:46:48;93503.97;;;-5.72;78.29
85130;BME280;75492;49.310;20.046;2024-01-30T04:51:49;93514.22;;;-5.70;79.13
85130;BME280;75492;49.310;20.046;2024-01-30T04:56:51;93513.66;;;-5.85;77.71
85130;BME280;75492;49.310;20.046;2024-01-30T05:01:53;93516.06;;;-5.84;77.00
85130;BME280;75492;49.310;20.046;2024-01-30T05:06:54;93521.34;;;-6.10;77.26
85130;BME280;75492;49.310;20.046;2024-01-30T05:11:56;93523.78;;;-6.09;78.64
85130;BME280;75492;49.310;20.046;2024-01-30T05:16:57;93519.53;;;-6.03;77.74
85130;BME280;75492;49.310;20.046;2024-01-30T05:21:59;93533.44;;;-6.23;78.08
85130;BME280;75492;49.310;20.046;2024-01-30T05:27:01;93536.44;;;-6.12;77.83
85130;BME280;75492;49.310;20.046;2024-01-30T05:32:03;93533.44;;;-6.03;79.09
85130;BME280;75492;49.310;20.046;2024-01-30T05:37:05;93535.63;;;-5.93;79.01
85130;BME280;75492;49.310;20.046;2024-01-30T05:42:07;93537.63;;;-5.88;78.92
85130;BME280;75492;49.310;20.046;2024-01-30T05:47:09;93534.19;;;-5.89;78.55
85130;BME280;75492;49.310;20.046;2024-01-30T05:52:10;93532.78;;;-5.92;78.50
85130;BME280;75492;49.310;20.046;2024-01-30T05:57:13;93535.41;;;-5.92;79.71
85130;BME280;75492;49.310;20.046;2024-01-30T06:02:14;93534.81;;;-6.00;81.30
85130;BME280;75492;49.310;20.046;2024-01-30T06:07:15;93538.25;;;-6.20;81.27
85130;BME280;75492;49.310;20.046;2024-01-30T06:12:18;93533.84;;;-6.12;80.99
85130;BME280;75492;49.310;20.046;2024-01-30T06:17:19;93541.69;;;-6.12;81.01
85130;BME280;75492;49.310;20.046;2024-01-30T06:22:21;93545.50;;;-6.22;80.52
85130;BME280;75492;49.310;20.046;2024-01-30T06:27:23;93529.19;;;-6.17;81.07
85130;BME280;75492;49.310;20.046;2024-01-30T06:32:25;93539.47;;;-6.22;80.01
85130;BME280;75492;49.310;20.046;2024-01-30T06:37:26;93543.88;;;-6.23;79.98
85130;BME280;75492;49.310;20.046;2024-01-30T06:42:29;93540.44;;;-6.17;78.49
85130;BME280;75492;49.310;20.046;2024-01-30T06:47:30;93537.66;;;-6.15;78.13
85130;BME280;75492;49.310;20.046;2024-01-30T06:52:31;93539.88;;;-6.19;77.70
85130;BME280;75492;49.310;20.046;2024-01-30T06:57:34;93540.88;;;-6.20;76.75
85130;BME280;75492;49.310;20.046;2024-01-30T07:02:35;93542.66;;;-6.07;79.13
85130;BME280;75492;49.310;20.046;2024-01-30T07:07:37;93540.03;;;-5.87;78.24
85130;BME280;75492;49.310;20.046;2024-01-30T07:12:39;93537.63;;;-5.88;79.41
85130;BME280;75492;49.310;20.046;2024-01-30T07:17:41;93536.59;;;-5.68;79.32
85130;BME280;75492;49.310;20.046;2024-01-30T07:22:42;93529.53;;;-5.60;79.57
85130;BME280;75492;49.310;20.046;2024-01-30T07:27:45;93531.72;;;-5.57;79.96
85130;BME280;75492;49.310;20.046;2024-01-30T07:32:46;93538.28;;;-6.00;81.21
85130;BME280;75492;49.310;20.046;2024-01-30T07:37:47;93539.19;;;-5.61;80.06
85130;BME280;75492;49.310;20.046;2024-01-30T07:42:50;93541.38;;;-5.45;79.28
85130;BME280;75492;49.310;20.046;2024-01-30T07:47:52;93537.94;;;-5.38;79.53
85130;BME280;75492;49.310;20.046;2024-01-30T07:52:53;93548.78;;;-5.22;79.66
85130;BME280;75492;49.310;20.046;2024-01-30T07:57:56;93544.31;;;-5.14;79.40
85130;BME280;75492;49.310;20.046;2024-01-30T08:02:57;93538.63;;;-4.98;80.18
85130;BME280;75492;49.310;20.046;2024-01-30T08:07:59;93538.81;;;-4.93;80.79
85130;BME280;75492;49.310;20.046;2024-01-30T08:13:02;93544.16;;;-4.75;80.60
85130;BME280;75492;49.310;20.046;2024-01-30T08:18:03;93550.16;;;-4.61;79.79
85130;BME280;75492;49.310;20.046;2024-01-30T08:23:05;93547.53;;;-4.61;82.12
85130;BME280;75492;49.310;20.046;2024-01-30T08:28:08;93546.69;;;-4.55;81.93
85130;BME280;75492;49.310;20.046;2024-01-30T08:33:09;93544.16;;;-4.30;81.78
85130;BME280;75492;49.310;20.046;2024-01-30T08:38:10;93549.09;;;-4.15;82.29
85130;BME280;75492;49.310;20.046;2024-01-30T08:43:13;93544.41;;;-4.06;81.51
85130;BME280;75492;49.310;20.046;2024-01-30T08:48:15;93543.03;;;-3.90;82.73
85130;BME280;75492;49.310;20.046;2024-01-30T08:53:16;93534.06;;;-3.76;83.08
85130;BME280;75492;49.310;20.046;2024-01-30T08:58:19;93525.16;;;-3.75;83.48
85130;BME280;75492;49.310;20.046;2024-01-30T09:03:21;93541.34;;;-3.53;83.63
85130;BME280;75492;49.310;20.046;2024-01-30T09:08:22;93532.06;;;-3.37;84.55
85130;BME280;75492;49.310;20.046;2024-01-30T09:13:25;93530.44;;;-3.13;84.04
85130;BME280;75492;49.310;20.046;2024-01-30T09:18:27;93521.88;;;-2.60;85.72
85130;BME280;75492;49.310;20.046;2024-01-30T09:23:28;93521.25;;;-2.14;84.41
85130;BME280;75492;49.310;20.046;2024-01-30T09:28:32;93522.09;;;-2.01;85.48
85130;BME280;75492;49.310;20.046;2024-01-30T09:33:33;93512.53;;;-1.60;83.00
85130;BME280;75492;49.310;20.046;2024-01-30T09:38:35;93517.25;;;-1.39;82.56
85130;BME280;75492;49.310;20.046;2024-01-30T09:43:38;93513.66;;;-1.21;80.40
85130;BME280;75492;49.310;20.046;2024-01-30T09:48:41;93513.31;;;-1.01;78.74
85130;BME280;75492;49.310;20.046;2024-01-30T09:53:42;93516.19;;;-1.03;74.52
85130;BME280;75492;49.310;20.046;2024-01-30T09:58:45;93517.44;;;-1.05;75.20
85130;BME280;75492;49.310;20.046;2024-01-30T10:03:46;93516.78;;;-1.12;76.57
85130;BME280;75492;49.310;20.046;2024-01-30T10:08:48;93511.72;;;-1.02;77.04
85130;BME280;75492;49.310;20.046;2024-01-30T10:13:50;93507.69;;;-0.93;76.64
85130;BME280;75492;49.310;20.046;2024-01-30T10:18:54;93506.97;;;-0.77;75.48
85130;BME280;75492;49.310;20.046;2024-01-30T10:23:56;93493.31;;;-0.57;72.81
85130;BME280;75492;49.310;20.046;2024-01-30T10:28:59;93473.41;;;-0.36;71.53
85130;BME280;75492;49.310;20.046;2024-01-30T10:34:00;93468.94;;;-0.18;70.48
85130;BME280;75492;49.310;20.046;2024-01-30T10:39:02;93457.13;;;0.01;71.13
85130;BME280;75492;49.310;20.046;2024-01-30T10:44:09;93449.09;;;0.13;72.36
85130;BME280;75492;49.310;20.046;2024-01-30T10:49:11;93442.38;;;0.22;74.10
85130;BME280;75492;49.310;20.046;2024-01-30T10:54:13;93425.47;;;0.57;74.00
85130;BME280;75492;49.310;20.046;2024-01-30T10:59:17;93435.81;;;0.80;74.33
85130;BME280;75492;49.310;20.046;2024-01-30T11:04:18;93419.41;;;1.00;71.53
85130;BME280;75492;49.310;20.046;2024-01-30T11:09:20;93425.53;;;0.84;70.86
85130;BME280;75492;49.310;20.046;2024-01-30T11:14:33;93410.78;;;0.88;69.17
85130;BME280;75492;49.310;20.046;2024-01-30T11:19:35;93414.66;;;0.80;69.72
85130;BME280;75492;49.310;20.046;2024-01-30T11:24:39;93415.38;;;0.76;70.46
85130;BME280;75492;49.310;20.046;2024-01-30T11:29:42;93412.09;;;0.68;71.41
85130;BME280;75492;49.310;20.046;2024-01-30T11:34:44;93410.81;;;0.71;70.55
85130;BME280;75492;49.310;20.046;2024-01-30T11:39:46;93405.41;;;1.05;67.85
85130;BME280;75492;49.310;20.046;2024-01-30T11:44:49;93403.69;;;1.15;67.92
85130;BME280;75492;49.310;20.046;2024-01-30T11:49:50;93398.38;;;1.15;68.46
85130;BME280;75492;49.310;20.046;2024-01-30T11:54:53;93392.00;;;1.11;70.95
85130;BME280;75492;49.310;20.046;2024-01-30T11:59:56;93396.53;;;1.43;68.45
85130;BME280;75492;49.310;20.046;2024-01-30T12:04:57;93387.09;;;1.25;69.51
85130;BME280;75492;49.310;20.046;2024-01-30T12:09:58;93389.34;;;1.11;70.82
85130;BME280;75492;49.310;20.046;2024-01-30T12:15:04;93388.81;;;1.36;68.88
85130;BME280;75492;49.310;20.046;2024-01-30T12:20:05;93385.16;;;1.15;70.29
85130;BME280;75492;49.310;20.046;2024-01-30T12:25:08;93385.44;;;1.19;68.28
85130;BME280;75492;49.310;20.046;2024-01-30T12:30:12;93379.16;;;1.25;68.01
85130;BME280;75492;49.310;20.046;2024-01-30T12:35:16;93370.03;;;1.38;66.96
85130;BME280;75492;49.310;20.046;2024-01-30T12:40:18;93362.53;;;1.30;68.47
85130;BME280;75492;49.310;20.046;2024-01-30T12:45:20;93366.09;;;1.40;69.59
85130;BME280;75492;49.310;20.046;2024-01-30T12:50:22;93367.69;;;1.41;69.25
85130;BME280;75492;49.310;20.046;2024-01-30T12:55:23;93376.00;;;1.50;69.97
85130;BME280;75492;49.310;20.046;2024-01-30T13:00:26;93363.88;;;1.32;70.89
85130;BME280;75492;49.310;20.046;2024-01-30T13:05:27;93363.53;;;1.24;73.13
85130;BME280;75492;49.310;20.046;2024-01-30T13:10:29;93363.44;;;1.40;71.69
85130;BME280;75492;49.310;20.046;2024-01-30T13:15:31;93354.28;;;1.53;70.13
85130;BME280;75492;49.310;20.046;2024-01-30T13:20:33;93359.53;;;1.48;70.01
85130;BME280;75492;49.310;20.046;2024-01-30T13:25:34;93359.75;;;1.41;69.91
85130;BME280;75492;49.310;20.046;2024-01-30T13:30:37;93354.91;;;1.33;71.29
85130;BME280;75492;49.310;20.046;2024-01-30T13:35:38;93358.78;;;1.26;71.62
85130;BME280;75492;49.310;20.046;2024-01-30T13:40:40;93353.69;;;1.19;71.41
85130;BME280;75492;49.310;20.046;2024-01-30T13:45:42;93353.34;;;1.10;72.65
85130;BME280;75492;49.310;20.046;2024-01-30T13:50:43;93360.44;;;1.05;72.52
85130;BME280;75492;49.310;20.046;2024-01-30T13:55:45;93362.50;;;1.03;71.98
85130;BME280;75492;49.310;20.046;2024-01-30T14:00:47;93361.59;;;0.92;72.61
85130;BME280;75492;49.310;20.046;2024-01-30T14:05:49;93370.28;;;0.87;72.55
85130;BME280;75492;49.310;20.046;2024-01-30T14:10:50;93371.09;;;0.88;70.90
85130;BME280;75492;49.310;20.046;2024-01-30T14:15:53;93367.38;;;0.89;71.51
85130;BME280;75492;49.310;20.046;2024-01-30T14:20:54;93364.88;;;0.55;73.63
85130;BME280;75492;49.310;20.046;2024-01-30T14:25:55;93366.59;;;0.44;74.07
85130;BME280;75492;49.310;20.046;2024-01-30T14:30:58;93368.00;;;0.30;74.23
85130;BME280;75492;49.310;20.046;2024-01-30T14:36:00;93372.75;;;-0.06;74.50
85130;BME280;75492;49.310;20.046;2024-01-30T14:41:01;93362.03;;;-0.33;77.52
85130;BME280;75492;49.310;20.046;2024-01-30T14:46:04;93367.00;;;-0.53;76.64
85130;BME280;75492;49.310;20.046;2024-01-30T14:51:06;93374.78;;;-0.75;77.17
85130;BME280;75492;49.310;20.046;2024-01-30T14:56:07;93373.41;;;-0.78;77.09
85130;BME280;75492;49.310;20.046;2024-01-30T15:01:10;93373.34;;;-0.83;77.17
85130;BME280;75492;49.310;20.046;2024-01-30T15:06:12;93369.59;;;-0.99;78.44
85130;BME280;75492;49.310;20.046;2024-01-30T15:11:14;93365.59;;;-1.01;78.59
85130;BME280;75492;49.310;20.046;2024-01-30T15:16:16;93366.06;;;-1.04;79.11
85130;BME280;75492;49.310;20.046;2024-01-30T15:21:18;93368.13;;;-1.35;78.22
85130;BME280;75492;49.310;20.046;2024-01-30T15:26:19;93378.56;;;-1.40;79.09
85130;BME280;75492;49.310;20.046;2024-01-30T15:31:22;93376.88;;;-1.46;79.52
85130;BME280;75492;49.310;20.046;2024-01-30T15:36:24;93374.03;;;-1.56;79.82
85130;BME280;75492;49.310;20.046;2024-01-30T15:41:25;93371.97;;;-1.78;79.93
85130;BME280;75492;49.310;20.046;2024-01-30T15:46:28;93376.34;;;-1.95;79.78
85130;BME280;75492;49.310;20.046;2024-01-30T15:51:29;93371.19;;;-1.90;79.72
85130;BME280;75492;49.310;20.046;2024-01-30T15:56:31;93367.53;;;-1.89;80.29
85130;BME280;75492;49.310;20.046;2024-01-30T16:01:33;93373.03;;;-2.02;81.36
85130;BME280;75492;49.310;20.046;2024-01-30T16:06:35;93371.19;;;-2.14;82.51
85130;BME280;75492;49.310;20.046;2024-01-30T16:11:36;93364.13;;;-2.13;82.64
85130;BME280;75492;49.310;20.046;2024-01-30T16:16:39;93377.63;;;-2.09;82.44
85130;BME280;75492;49.310;20.046;2024-01-30T16:21:40;93373.34;;;-2.34;80.58
85130;BME280;75492;49.310;20.046;2024-01-30T16:26:42;93361.56;;;-2.31;79.46
85130;BME280;75492;49.310;20.046;2024-01-30T16:31:44;93365.13;;;-2.38;81.51
85130;BME280;75492;49.310;20.046;2024-01-30T16:36:46;93366.38;;;-2.40;81.52
85130;BME280;75492;49.310;20.046;2024-01-30T16:41:47;93358.72;;;-2.42;82.29
85130;BME280;75492;49.310;20.046;2024-01-30T16:46:50;93366.47;;;-2.47;82.19
85130;BME280;75492;49.310;20.046;2024-01-30T16:51:51;93351.34;;;-2.75;82.29
85130;BME280;75492;49.310;20.046;2024-01-30T16:56:53;93357.03;;;-2.78;81.02
85130;BME280;75492;49.310;20.046;2024-01-30T17:01:55;93362.66;;;-2.74;81.23
85130;BME280;75492;49.310;20.046;2024-01-30T17:06:58;93360.13;;;-2.81;82.70
85130;BME280;75492;49.310;20.046;2024-01-30T17:11:59;93363.66;;;-2.87;81.64
85130;BME280;75492;49.310;20.046;2024-01-30T17:17:06;93357.94;;;-2.84;80.21
85130;BME280;75492;49.310;20.046;2024-01-30T17:22:10;93351.53;;;-2.88;80.75
85130;BME280;75492;49.310;20.046;2024-01-30T17:27:12;93366.91;;;-3.03;79.93
85130;BME280;75492;49.310;20.046;2024-01-30T17:32:16;93360.66;;;-3.02;81.88
85130;BME280;75492;49.310;20.046;2024-01-30T17:37:17;93355.50;;;-2.97;81.86
85130;BME280;75492;49.310;20.046;2024-01-30T17:42:18;93354.88;;;-3.11;80.96
85130;BME280;75492;49.310;20.046;2024-01-30T17:47:21;93361.19;;;-3.12;79.42
85130;BME280;75492;49.310;20.046;2024-01-30T17:52:22;93356.63;;;-3.35;80.00
85130;BME280;75492;49.310;20.046;2024-01-30T17:57:23;93348.88;;;-3.30;80.86
85130;BME280;75492;49.310;20.046;2024-01-30T18:02:26;93332.31;;;-3.31;80.24
85130;BME280;75492;49.310;20.046;2024-01-30T18:07:27;93331.03;;;-3.40;80.00
85130;BME280;75492;49.310;20.046;2024-01-30T18:12:29;93338.53;;;-3.43;81.91
85130;BME280;75492;49.310;20.046;2024-01-30T18:17:31;93330.94;;;-3.33;81.87
85130;BME280;75492;49.310;20.046;2024-01-30T18:22:33;93322.84;;;-3.50;79.17
85130;BME280;75492;49.310;20.046;2024-01-30T18:27:34;93322.56;;;-3.42;79.46
85130;BME280;75492;49.310;20.046;2024-01-30T18:32:37;93327.19;;;-3.74;79.69
85130;BME280;75492;49.310;20.046;2024-01-30T18:37:38;93332.34;;;-3.49;80.07
85130;BME280;75492;49.310;20.046;2024-01-30T18:42:39;93329.00;;;-3.56;79.23
85130;BME280;75492;49.310;20.046;2024-01-30T18:47:41;93322.75;;;-3.73;77.55
85130;BME280;75492;49.310;20.046;2024-01-30T18:52:43;93322.81;;;-3.80;78.89
85130;BME280;75492;49.310;20.046;2024-01-30T18:57:45;93327.34;;;-3.69;79.77
85130;BME280;75492;49.310;20.046;2024-01-30T19:02:47;93328.91;;;-3.80;79.37
85130;BME280;75492;49.310;20.046;2024-01-30T19:07:49;93333.25;;;-3.73;79.09
85130;BME280;75492;49.310;20.046;2024-01-30T19:12:50;93325.25;;;-3.79;79.45
85130;BME280;75492;49.310;20.046;2024-01-30T19:17:53;93325.75;;;-3.88;80.42
85130;BME280;75492;49.310;20.046;2024-01-30T19:22:55;93329.91;;;-3.81;80.53
85130;BME280;75492;49.310;20.046;2024-01-30T19:27:56;93324.94;;;-3.89;78.89
85130;BME280;75492;49.310;20.046;2024-01-30T19:32:58;93322.53;;;-4.09;79.62
85130;BME280;75492;49.310;20.046;2024-01-30T19:38:00;93317.06;;;-4.26;79.97
85130;BME280;75492;49.310;20.046;2024-01-30T19:43:01;93321.09;;;-4.05;79.70
85130;BME280;75492;49.310;20.046;2024-01-30T19:48:05;93314.09;;;-4.29;80.04
85130;BME280;75492;49.310;20.046;2024-01-30T19:53:06;93305.22;;;-4.10;79.25
85130;BME280;75492;49.310;20.046;2024-01-30T19:58:08;93305.03;;;-4.15;80.64
85130;BME280;75492;49.310;20.046;2024-01-30T20:03:11;93300.22;;;-4.18;78.81
85130;BME280;75492;49.310;20.046;2024-01-30T20:08:12;93298.53;;;-4.31;78.92
85130;BME280;75492;49.310;20.046;2024-01-30T20:13:14;93304.69;;;-4.18;78.39
85130;BME280;75492;49.310;20.046;2024-01-30T20:18:17;93303.09;;;-4.19;79.12
85130;BME280;75492;49.310;20.046;2024-01-30T20:23:18;93302.31;;;-4.27;78.12
85130;BME280;75492;49.310;20.046;2024-01-30T20:28:21;93293.16;;;-4.17;76.93
85130;BME280;75492;49.310;20.046;2024-01-30T20:33:25;93309.84;;;-4.30;77.56
85130;BME280;75492;49.310;20.046;2024-01-30T20:38:27;93304.28;;;-4.59;77.15
85130;BME280;75492;49.310;20.046;2024-01-30T20:43:28;93292.06;;;-4.97;77.03
85130;BME280;75492;49.310;20.046;2024-01-30T20:48:32;93290.31;;;-4.78;76.22
85130;BME280;75492;49.310;20.046;2024-01-30T20:53:36;93290.31;;;-4.53;79.22
85130;BME280;75492;49.310;20.046;2024-01-30T20:58:38;93281.78;;;-4.48;77.45
85130;BME280;75492;49.310;20.046;2024-01-30T21:03:41;93283.25;;;-4.77;77.20
85130;BME280;75492;49.310;20.046;2024-01-30T21:08:43;93283.13;;;-4.64;76.47
85130;BME280;75492;49.310;20.046;2024-01-30T21:13:44;93282.19;;;-4.69;77.16
85130;BME280;75492;49.310;20.046;2024-01-30T21:18:47;93291.59;;;-4.62;78.49
85130;BME280;75492;49.310;20.046;2024-01-30T21:23:48;93273.41;;;-4.82;77.66
85130;BME280;75492;49.310;20.046;2024-01-30T21:28:50;93280.00;;;-4.72;75.73
85130;BME280;75492;49.310;20.046;2024-01-30T21:33:53;93282.75;;;-4.86;77.31
85130;BME280;75492;49.310;20.046;2024-01-30T21:38:55;93278.22;;;-4.79;77.14
85130;BME280;75492;49.310;20.046;2024-01-30T21:43:56;93277.88;;;-4.82;78.02
85130;BME280;75492;49.310;20.046;2024-01-30T21:48:59;93274.66;;;-4.84;75.02
85130;BME280;75492;49.310;20.046;2024-01-30T21:54:01;93270.44;;;-4.85;74.84
85130;BME280;75492;49.310;20.046;2024-01-30T21:59:03;93267.97;;;-5.05;77.99
85130;BME280;75492;49.310;20.046;2024-01-30T22:04:06;93260.97;;;-4.86;77.93
85130;BME280;75492;49.310;20.046;2024-01-30T22:09:08;93257.47;;;-4.80;78.30
85130;BME280;75492;49.310;20.046;2024-01-30T22:14:12;93251.66;;;-4.82;77.37
85130;BME280;75492;49.310;20.046;2024-01-30T22:19:15;93254.41;;;-4.95;78.15
85130;BME280;75492;49.310;20.046;2024-01-30T22:24:17;93242.44;;;-5.16;76.33
85130;BME280;75492;49.310;20.046;2024-01-30T22:29:18;93249.88;;;-5.13;74.95
85130;BME280;75492;49.310;20.046;2024-01-30T22:34:21;93247.50;;;-5.15;74.98
85130;BME280;75492;49.310;20.046;2024-01-30T22:39:23;93257.75;;;-5.38;76.36
85130;BME280;75492;49.310;20.046;2024-01-30T22:44:24;93260.97;;;-5.36;74.87
85130;BME280;75492;49.310;20.046;2024-01-30T22:49:27;93264.53;;;-5.31;77.48
85130;BME280;75492;49.310;20.046;2024-01-30T22:54:28;93268.22;;;-5.38;73.51
85130;BME280;75492;49.310;20.046;2024-01-30T22:59:30;93272.59;;;-5.64;75.86
85130;BME280;75492;49.310;20.046;2024-01-30T23:04:33;93267.31;;;-5.26;78.24
85130;BME280;75492;49.310;20.046;2024-01-30T23:09:34;93272.16;;;-5.23;77.30
85130;BME280;75492;49.310;20.046;2024-01-30T23:14:36;93260.09;;;-5.30;77.29
85130;BME280;75492;49.310;20.046;2024-01-30T23:19:38;93264.81;;;-5.39;77.89
85130;BME280;75492;49.310;20.046;2024-01-30T23:24:39;93265.56;;;-5.32;78.24
85130;BME280;75492;49.310;20.046;2024-01-30T23:29:40;93256.28;;;-5.34;78.02
85130;BME280;75492;49.310;20.046;2024-01-30T23:34:43;93241.22;;;-5.39;78.96
85130;BME280;75492;49.310;20.046;2024-01-30T23:39:45;93239.66;;;-5.47;78.35
85130;BME280;75492;49.310;20.046;2024-01-30T23:44:46;93224.81;;;-5.53;78.16
85130;BME280;75492;49.310;20.046;2024-01-30T23:49:49;93240.16;;;-5.31;77.31
85130;BME280;75492;49.310;20.046;2024-01-30T23:54:50;93240.00;;;-5.36;77.00
85130;BME280;75492;49.310;20.046;2024-01-30T23:59:52;93236.56;;;-5.37;77.04
